Time;durP1;ratioP1;P1;durP2;ratioP2;P2;SDS_P1;SDS_P2;PMS_P1;PMS_P2;Temp;Humidity;BMP_temperature;BMP_pressure;BME280_temperature;BME280_humidity;BME280_pressure;Samples;Min_cycle;Max_cycle;Signal;HPM_P1;HPM_P2
2021/08/25 00:00:50;;;;;;;9.80;7.25;;;;;;;;;;2089168;28;20298;-54
2021/08/25 00:01:51;;;;;;;8.40;7.00;;;;;;;;;;2084032;28;20172;-53
2021/08/25 00:02:51;;;;;;;8.55;7.10;;;;;;;;;;2088916;28;20213;-53
2021/08/25 00:03:51;;;;;;;9.02;7.00;;;;;;;;;;2084962;28;20208;-53
2021/08/25 00:04:51;;;;;;;8.20;6.63;;;;;;;;;;2084394;28;20226;-52
2021/08/25 00:05:52;;;;;;;8.48;6.78;;;;;;;;;;2088407;28;20158;-53
2021/08/25 00:06:53;;;;;;;7.97;6.47;;;;;;;;;;2084598;28;20167;-51
2021/08/25 00:07:53;;;;;;;7.60;5.90;;;;;;;;;;2089610;28;20210;-51
2021/08/25 00:08:53;;;;;;;9.60;6.80;;;;;;;;;;2088001;28;20180;-54
2021/08/25 00:09:54;;;;;;;7.40;6.55;;;;;;;;;;2084860;28;20314;-54
2021/08/25 00:10:54;;;;;;;10.85;6.68;;;;;;;;;;2079791;28;20247;-52
2021/08/25 00:11:54;;;;;;;10.07;7.15;;;;;;;;;;2076329;28;20244;-53
2021/08/25 00:12:54;;;;;;;8.50;6.70;;;;;;;;;;2087977;28;20172;-54
2021/08/25 00:13:55;;;;;;;10.25;6.40;;;;;;;;;;2090499;28;20199;-53
2021/08/25 00:14:55;;;;;;;6.75;6.05;;;;;;;;;;2090582;28;20178;-52
2021/08/25 00:15:55;;;;;;;8.27;6.40;;;;;;;;;;2086771;28;20180;-54
2021/08/25 00:16:55;;;;;;;8.60;6.97;;;;;;;;;;2084542;28;20216;-53
2021/08/25 00:17:56;;;;;;;9.13;7.13;;;;;;;;;;2090684;28;20659;-52
2021/08/25 00:18:56;;;;;;;7.07;6.32;;;;;;;;;;2090691;28;20167;-53
2021/08/25 00:19:56;;;;;;;7.65;6.85;;;;;;;;;;2091244;28;20171;-55
2021/08/25 00:20:57;;;;;;;10.27;7.05;;;;;;;;;;2082809;28;20199;-54
2021/08/25 00:21:58;;;;;;;9.98;6.53;;;;;;;;;;2083520;28;20180;-56
2021/08/25 00:22:58;;;;;;;9.18;7.00;;;;;;;;;;2083790;28;20223;-55
2021/08/25 00:23:58;;;;;;;11.07;6.75;;;;;;;;;;2083779;28;20175;-56
2021/08/25 00:24:58;;;;;;;9.18;6.45;;;;;;;;;;2088216;28;20184;-55
2021/08/25 00:25:59;;;;;;;11.93;7.63;;;;;;;;;;2091714;28;20207;-55
2021/08/25 00:26:59;;;;;;;10.13;7.15;;;;;;;;;;2089469;28;20732;-56
2021/08/25 00:28:00;;;;;;;8.40;6.55;;;;;;;;;;2087661;28;20627;-55
2021/08/25 00:29:00;;;;;;;8.48;6.65;;;;;;;;;;2084113;28;20259;-57
2021/08/25 00:30:03;;;;;;;10.27;6.90;;;;;;;;;;2092974;28;20171;-56
2021/08/25 00:31:03;;;;;;;7.60;6.72;;;;;;;;;;2093517;28;20179;-53
2021/08/25 00:32:04;;;;;;;8.63;6.65;;;;;;;;;;2092847;28;20337;-56
2021/08/25 00:33:04;;;;;;;8.73;6.05;;;;;;;;;;2092020;28;20172;-55
2021/08/25 00:34:04;;;;;;;11.73;7.07;;;;;;;;;;2088375;28;20207;-57
2021/08/25 00:35:05;;;;;;;8.07;6.40;;;;;;;;;;2092591;28;20186;-53
2021/08/25 00:36:05;;;;;;;7.82;6.30;;;;;;;;;;2094729;28;20208;-57
2021/08/25 00:37:05;;;;;;;10.57;7.05;;;;;;;;;;2093398;28;20290;-55
2021/08/25 00:38:06;;;;;;;9.32;6.63;;;;;;;;;;2092138;28;20628;-56
2021/08/25 00:39:06;;;;;;;7.60;6.63;;;;;;;;;;2092836;28;20168;-52
2021/08/25 00:40:07;;;;;;;10.55;7.57;;;;;;;;;;2092396;28;20171;-57
2021/08/25 00:41:07;;;;;;;8.23;7.28;;;;;;;;;;2093485;28;20368;-56
2021/08/25 00:42:07;;;;;;;9.23;6.80;;;;;;;;;;2092343;28;20175;-54
2021/08/25 00:43:09;;;;;;;8.05;7.05;;;;;;;;;;2092085;28;20185;-55
2021/08/25 00:44:10;;;;;;;8.13;6.85;;;;;;;;;;2100607;28;20185;-55
2021/08/25 00:45:10;;;;;;;10.15;7.53;;;;;;;;;;2083231;28;20203;-54
2021/08/25 00:46:11;;;;;;;9.43;7.10;;;;;;;;;;2076861;28;20176;-56
2021/08/25 00:47:15;;;;;;;8.60;6.47;;;;;;;;;;2089873;28;20259;-55
2021/08/25 00:48:16;;;;;;;8.52;6.65;;;;;;;;;;2092423;28;20183;-53
2021/08/25 00:49:18;;;;;;;7.45;6.72;;;;;;;;;;2092497;28;20182;-53
2021/08/25 00:50:18;;;;;;;7.43;6.65;;;;;;;;;;2092758;28;20258;-52
2021/08/25 00:51:21;;;;;;;8.75;6.72;;;;;;;;;;2094134;28;20179;-56
2021/08/25 00:52:21;;;;;;;7.93;6.80;;;;;;;;;;2100680;28;20647;-51
2021/08/25 00:53:24;;;;;;;8.57;6.30;;;;;;;;;;2101380;28;20232;-57
2021/08/25 00:54:25;;;;;;;7.28;6.57;;;;;;;;;;2082798;28;20218;-53
2021/08/25 00:55:25;;;;;;;10.88;6.60;;;;;;;;;;2085314;28;20183;-52
2021/08/25 00:56:25;;;;;;;9.93;7.18;;;;;;;;;;2091153;28;20198;-56
2021/08/25 00:57:26;;;;;;;9.02;7.13;;;;;;;;;;2092388;28;20231;-57
2021/08/25 00:58:26;;;;;;;8.80;7.47;;;;;;;;;;2091463;28;20162;-55
2021/08/25 00:59:27;;;;;;;8.73;6.57;;;;;;;;;;2091702;28;20170;-55
2021/08/25 01:00:29;;;;;;;7.20;6.50;;;;;;;;;;2089849;28;20187;-52
2021/08/25 01:01:35;;;;;;;8.45;7.53;;;;;;;;;;2089678;28;20636;-54
2021/08/25 01:02:51;;;;;;;8.82;6.65;;;;;;;;;;2089684;28;20732;-52
2021/08/25 01:03:57;;;;;;;9.40;6.93;;;;;;;;;;2081321;28;20198;-54
2021/08/25 01:04:58;;;;;;;8.65;6.45;;;;;;;;;;2081406;28;20187;-54
2021/08/25 01:05:58;;;;;;;7.78;6.55;;;;;;;;;;2081202;28;20566;-51
2021/08/25 01:06:59;;;;;;;8.75;6.38;;;;;;;;;;2074114;28;20239;-54
2021/08/25 01:08:01;;;;;;;8.40;6.78;;;;;;;;;;2091065;28;20186;-56
2021/08/25 01:09:03;;;;;;;9.55;6.13;;;;;;;;;;2091821;28;20186;-53
2021/08/25 01:10:22;;;;;;;6.88;6.15;;;;;;;;;;2090924;28;20167;-54
2021/08/25 01:11:22;;;;;;;6.65;6.05;;;;;;;;;;2080999;28;20172;-53
2021/08/25 01:12:23;;;;;;;7.43;5.63;;;;;;;;;;2080994;28;20679;-53
2021/08/25 01:13:23;;;;;;;8.07;6.50;;;;;;;;;;2081086;28;20200;-52
2021/08/25 01:14:24;;;;;;;7.50;6.70;;;;;;;;;;2081258;28;20176;-52
2021/08/25 01:15:29;;;;;;;6.97;6.25;;;;;;;;;;2080954;28;20180;-52
2021/08/25 01:16:29;;;;;;;6.75;6.05;;;;;;;;;;2089663;28;20671;-52
2021/08/25 01:17:30;;;;;;;7.22;6.45;;;;;;;;;;2089602;28;20183;-54
2021/08/25 01:18:30;;;;;;;6.70;6.03;;;;;;;;;;2081528;28;20164;-56
2021/08/25 01:19:57;;;;;;;6.32;5.72;;;;;;;;;;2081239;28;20633;-56
2021/08/25 01:20:59;;;;;;;6.72;5.88;;;;;;;;;;2088629;28;20245;-52
2021/08/25 01:22:00;;;;;;;7.05;6.10;;;;;;;;;;2089617;28;20184;-52
2021/08/25 01:23:00;;;;;;;8.50;6.28;;;;;;;;;;2089892;28;20163;-53
2021/08/25 01:24:01;;;;;;;7.10;5.72;;;;;;;;;;2089595;28;20191;-54
2021/08/25 01:25:02;;;;;;;9.02;5.93;;;;;;;;;;2090197;28;20698;-52
2021/08/25 01:26:02;;;;;;;8.75;6.10;;;;;;;;;;2089605;28;20722;-54
2021/08/25 01:27:03;;;;;;;6.88;6.22;;;;;;;;;;2090226;28;20249;-55
2021/08/25 01:28:04;;;;;;;7.80;6.10;;;;;;;;;;2090029;28;20171;-52
2021/08/25 01:29:05;;;;;;;7.70;6.05;;;;;;;;;;2091111;28;20168;-56
2021/08/25 01:30:06;;;;;;;8.63;5.72;;;;;;;;;;2090924;28;20266;-54
2021/08/25 01:31:06;;;;;;;6.97;6.05;;;;;;;;;;2090555;28;20179;-55
2021/08/25 01:32:06;;;;;;;6.88;5.80;;;;;;;;;;2090940;28;20163;-54
2021/08/25 01:33:16;;;;;;;6.57;5.72;;;;;;;;;;2090520;28;20238;-54
2021/08/25 01:34:16;;;;;;;8.68;6.97;;;;;;;;;;2081663;28;20231;-54
2021/08/25 01:35:16;;;;;;;6.97;6.03;;;;;;;;;;2081945;28;20323;-56
2021/08/25 01:36:17;;;;;;;8.75;5.70;;;;;;;;;;2090118;28;20207;-52
2021/08/25 01:37:18;;;;;;;10.82;6.45;;;;;;;;;;2089981;28;20207;-55
2021/08/25 01:38:26;;;;;;;6.22;5.53;;;;;;;;;;2089467;28;20623;-54
2021/08/25 01:39:26;;;;;;;5.78;5.28;;;;;;;;;;2090580;28;20210;-55
2021/08/25 01:40:26;;;;;;;9.55;5.85;;;;;;;;;;2090521;28;20167;-56
2021/08/25 01:41:27;;;;;;;7.50;5.57;;;;;;;;;;2085993;28;20172;-55
2021/08/25 01:42:27;;;;;;;6.38;5.40;;;;;;;;;;2089371;28;20195;-51
2021/08/25 01:43:27;;;;;;;6.70;5.88;;;;;;;;;;2080265;28;20186;-53
2021/08/25 01:44:27;;;;;;;7.63;6.25;;;;;;;;;;2080002;28;20168;-53
2021/08/25 01:45:28;;;;;;;6.65;6.05;;;;;;;;;;2089990;28;20176;-55
2021/08/25 01:46:30;;;;;;;6.95;5.97;;;;;;;;;;2089297;28;20298;-53
2021/08/25 01:47:30;;;;;;;5.80;5.22;;;;;;;;;;2085504;28;20742;-51
2021/08/25 01:48:32;;;;;;;8.93;5.88;;;;;;;;;;2084546;28;20183;-52
2021/08/25 01:49:32;;;;;;;9.65;5.78;;;;;;;;;;2088153;28;20563;-52
2021/08/25 01:50:32;;;;;;;8.43;5.63;;;;;;;;;;2089170;28;20191;-53
2021/08/25 01:51:33;;;;;;;6.47;5.25;;;;;;;;;;2088662;28;20184;-53
2021/08/25 01:52:34;;;;;;;6.53;5.75;;;;;;;;;;2089284;28;20246;-52
2021/08/25 01:53:34;;;;;;;7.75;5.57;;;;;;;;;;2088098;28;20180;-51
2021/08/25 01:54:36;;;;;;;7.43;6.07;;;;;;;;;;2081319;28;20175;-51
2021/08/25 01:55:36;;;;;;;6.38;5.78;;;;;;;;;;2072541;28;20177;-53
2021/08/25 01:56:36;;;;;;;8.35;7.40;;;;;;;;;;2079045;28;20223;-55
2021/08/25 01:57:36;;;;;;;7.35;5.97;;;;;;;;;;2088577;28;20183;-53
2021/08/25 01:58:37;;;;;;;11.18;6.60;;;;;;;;;;2081547;28;20183;-53
2021/08/25 01:59:38;;;;;;;7.88;6.35;;;;;;;;;;2086100;28;20218;-54
2021/08/25 02:00:38;;;;;;;9.90;6.93;;;;;;;;;;2064905;28;20186;-56
2021/08/25 02:01:38;;;;;;;6.85;6.15;;;;;;;;;;2080635;28;20176;-53
2021/08/25 02:02:39;;;;;;;7.63;6.72;;;;;;;;;;2088757;28;20183;-52
2021/08/25 02:03:39;;;;;;;7.32;6.47;;;;;;;;;;2089426;28;20187;-54
2021/08/25 02:04:40;;;;;;;11.30;6.53;;;;;;;;;;2083801;28;20273;-55
2021/08/25 02:05:40;;;;;;;8.30;7.20;;;;;;;;;;2079266;28;20645;-55
2021/08/25 02:06:40;;;;;;;7.95;6.20;;;;;;;;;;2087694;28;20184;-51
2021/08/25 02:07:41;;;;;;;7.43;6.35;;;;;;;;;;2088556;28;20167;-51
2021/08/25 02:08:41;;;;;;;11.98;6.95;;;;;;;;;;2089065;28;20172;-53
2021/08/25 02:09:41;;;;;;;9.63;5.90;;;;;;;;;;2088358;28;20191;-55
2021/08/25 02:10:41;;;;;;;6.55;5.72;;;;;;;;;;2089056;28;20201;-52
2021/08/25 02:11:42;;;;;;;8.43;6.28;;;;;;;;;;2088676;28;20172;-57
2021/08/25 02:12:42;;;;;;;9.25;6.70;;;;;;;;;;2091288;28;20192;-54
2021/08/25 02:13:43;;;;;;;6.82;6.10;;;;;;;;;;2090284;28;20180;-54
2021/08/25 02:14:43;;;;;;;9.52;6.50;;;;;;;;;;2089551;28;20188;-53
2021/08/25 02:15:43;;;;;;;6.88;6.07;;;;;;;;;;2091256;28;20207;-53
2021/08/25 02:16:43;;;;;;;8.32;6.38;;;;;;;;;;2089360;28;20587;-53
2021/08/25 02:17:44;;;;;;;8.48;6.43;;;;;;;;;;2089021;28;20230;-54
2021/08/25 02:18:44;;;;;;;7.50;6.18;;;;;;;;;;2088918;28;20172;-54
2021/08/25 02:19:45;;;;;;;6.95;6.13;;;;;;;;;;2086346;28;20204;-52
2021/08/25 02:20:45;;;;;;;7.65;5.55;;;;;;;;;;2089253;28;20199;-53
2021/08/25 02:21:45;;;;;;;6.40;5.80;;;;;;;;;;2086522;28;20194;-53
2021/08/25 02:22:45;;;;;;;6.75;6.05;;;;;;;;;;2089431;28;20644;-52
2021/08/25 02:23:46;;;;;;;7.22;6.07;;;;;;;;;;2089003;28;20209;-53
2021/08/25 02:24:47;;;;;;;7.88;6.47;;;;;;;;;;2087240;28;20561;-57
2021/08/25 02:25:48;;;;;;;9.10;6.60;;;;;;;;;;2080699;28;20199;-52
2021/08/25 02:26:48;;;;;;;8.25;6.32;;;;;;;;;;2087153;28;20171;-51
2021/08/25 02:27:48;;;;;;;6.70;6.03;;;;;;;;;;2084948;28;20548;-50
2021/08/25 02:28:49;;;;;;;6.78;6.07;;;;;;;;;;2089130;28;20187;-52
2021/08/25 02:29:55;;;;;;;9.23;5.78;;;;;;;;;;2084707;28;20187;-52
2021/08/25 02:30:56;;;;;;;9.38;6.22;;;;;;;;;;2089082;28;20533;-51
2021/08/25 02:31:56;;;;;;;7.60;6.10;;;;;;;;;;2084885;28;20174;-52
2021/08/25 02:32:56;;;;;;;9.70;6.15;;;;;;;;;;2080924;28;20207;-53
2021/08/25 02:33:56;;;;;;;6.07;5.47;;;;;;;;;;2081762;28;20310;-54
2021/08/25 02:34:57;;;;;;;8.07;6.35;;;;;;;;;;2090521;28;20385;-52
2021/08/25 02:35:57;;;;;;;8.00;6.28;;;;;;;;;;2082055;28;20184;-52
2021/08/25 02:36:57;;;;;;;10.02;7.60;;;;;;;;;;2082759;28;20208;-52
2021/08/25 02:37:57;;;;;;;8.20;6.38;;;;;;;;;;2091798;28;20183;-53
2021/08/25 02:38:58;;;;;;;7.25;6.55;;;;;;;;;;2092107;28;20184;-52
2021/08/25 02:39:58;;;;;;;7.38;6.68;;;;;;;;;;2092265;28;20171;-54
2021/08/25 02:40:58;;;;;;;7.53;6.40;;;;;;;;;;2091674;28;20182;-54
2021/08/25 02:41:58;;;;;;;6.75;6.03;;;;;;;;;;2091080;28;20238;-51
2021/08/25 02:42:59;;;;;;;8.68;6.90;;;;;;;;;;2091301;28;20168;-54
2021/08/25 02:43:59;;;;;;;6.93;6.22;;;;;;;;;;2092030;28;20692;-51
2021/08/25 02:44:59;;;;;;;7.95;6.85;;;;;;;;;;2091812;28;20171;-52
2021/08/25 02:46:00;;;;;;;6.55;5.90;;;;;;;;;;2091947;28;20192;-53
2021/08/25 02:47:00;;;;;;;9.20;6.78;;;;;;;;;;2090425;28;20199;-52
2021/08/25 02:48:00;;;;;;;7.70;6.90;;;;;;;;;;2091721;28;20164;-52
2021/08/25 02:49:01;;;;;;;6.65;6.00;;;;;;;;;;2091509;28;20168;-52
2021/08/25 02:50:01;;;;;;;6.72;6.03;;;;;;;;;;2091950;28;20186;-53
2021/08/25 02:51:01;;;;;;;6.78;5.82;;;;;;;;;;2091862;28;20178;-53
2021/08/25 02:52:01;;;;;;;7.97;5.72;;;;;;;;;;2091713;28;20249;-52
2021/08/25 02:53:02;;;;;;;5.90;5.40;;;;;;;;;;2091309;28;20182;-53
2021/08/25 02:54:02;;;;;;;6.78;5.07;;;;;;;;;;2083127;28;20203;-52
2021/08/25 02:55:03;;;;;;;6.53;5.85;;;;;;;;;;2082702;28;20178;-53
2021/08/25 02:56:03;;;;;;;7.65;5.38;;;;;;;;;;2080852;28;20672;-53
2021/08/25 02:57:03;;;;;;;7.25;5.65;;;;;;;;;;2081775;28;20227;-53
2021/08/25 02:58:03;;;;;;;5.85;5.25;;;;;;;;;;2087421;28;20206;-52
2021/08/25 02:59:04;;;;;;;8.10;5.82;;;;;;;;;;2083219;28;20218;-53
2021/08/25 03:00:04;;;;;;;5.95;5.38;;;;;;;;;;2082281;28;20177;-52
2021/08/25 03:01:05;;;;;;;7.28;5.40;;;;;;;;;;2081175;28;20251;-53
2021/08/25 03:02:05;;;;;;;6.60;5.90;;;;;;;;;;2081683;28;20649;-54
2021/08/25 03:03:05;;;;;;;5.93;5.32;;;;;;;;;;2090825;28;20172;-56
2021/08/25 03:04:06;;;;;;;6.85;5.47;;;;;;;;;;2088795;28;20203;-55
2021/08/25 03:05:06;;;;;;;6.40;5.47;;;;;;;;;;2078752;28;20525;-55
2021/08/25 03:06:07;;;;;;;7.80;6.30;;;;;;;;;;2076207;28;20645;-52
2021/08/25 03:07:07;;;;;;;8.00;5.60;;;;;;;;;;2087969;28;20195;-53
2021/08/25 03:08:07;;;;;;;7.82;6.43;;;;;;;;;;2090937;28;20184;-55
2021/08/25 03:09:07;;;;;;;8.07;5.85;;;;;;;;;;2082424;28;20683;-55
2021/08/25 03:10:08;;;;;;;6.90;6.28;;;;;;;;;;2073994;28;20264;-55
2021/08/25 03:11:09;;;;;;;7.35;5.55;;;;;;;;;;2082136;28;20173;-51
2021/08/25 03:12:10;;;;;;;6.53;5.93;;;;;;;;;;2087316;28;20175;-55
2021/08/25 03:13:10;;;;;;;7.93;6.75;;;;;;;;;;2088052;28;20723;-54
2021/08/25 03:14:10;;;;;;;9.82;6.68;;;;;;;;;;2090741;28;20298;-52
2021/08/25 03:15:11;;;;;;;7.30;6.60;;;;;;;;;;2090597;28;20171;-53
2021/08/25 03:16:11;;;;;;;7.55;6.78;;;;;;;;;;2090228;28;20203;-53
2021/08/25 03:17:13;;;;;;;8.05;6.60;;;;;;;;;;2091441;28;20179;-53
2021/08/25 03:18:13;;;;;;;9.48;6.90;;;;;;;;;;2091123;28;20285;-52
2021/08/25 03:19:13;;;;;;;6.82;6.22;;;;;;;;;;2085324;28;20251;-52
2021/08/25 03:20:14;;;;;;;6.70;6.10;;;;;;;;;;2088577;28;20254;-54
2021/08/25 03:21:14;;;;;;;8.13;6.78;;;;;;;;;;2084221;28;20176;-53
2021/08/25 03:22:14;;;;;;;7.32;6.55;;;;;;;;;;2081604;28;20175;-51
2021/08/25 03:23:14;;;;;;;10.13;5.90;;;;;;;;;;2090458;28;20679;-52
2021/08/25 03:24:15;;;;;;;7.75;6.40;;;;;;;;;;2090605;28;20176;-50
2021/08/25 03:25:15;;;;;;;7.47;6.40;;;;;;;;;;2089797;28;20257;-51
2021/08/25 03:26:15;;;;;;;7.63;6.22;;;;;;;;;;2090860;28;20164;-52
2021/08/25 03:27:16;;;;;;;7.75;6.00;;;;;;;;;;2088813;28;20195;-52
2021/08/25 03:28:16;;;;;;;6.35;5.65;;;;;;;;;;2090843;28;20175;-53
2021/08/25 03:29:16;;;;;;;9.57;5.15;;;;;;;;;;2090244;28;20190;-54
2021/08/25 03:30:16;;;;;;;5.97;5.40;;;;;;;;;;2090468;28;20179;-50
2021/08/25 03:31:17;;;;;;;7.72;6.07;;;;;;;;;;2088971;28;20684;-53
2021/08/25 03:32:17;;;;;;;7.78;6.38;;;;;;;;;;2090675;28;20191;-52
2021/08/25 03:33:17;;;;;;;8.50;5.97;;;;;;;;;;2092101;28;20651;-52
2021/08/25 03:34:17;;;;;;;6.75;6.13;;;;;;;;;;2091177;28;20172;-51
2021/08/25 03:35:18;;;;;;;8.68;6.10;;;;;;;;;;2090320;28;20683;-52
2021/08/25 03:36:18;;;;;;;7.07;5.90;;;;;;;;;;2081732;28;20250;-52
2021/08/25 03:37:18;;;;;;;8.07;5.97;;;;;;;;;;2081032;28;20215;-52
2021/08/25 03:38:18;;;;;;;6.85;6.15;;;;;;;;;;2088983;28;20630;-52
2021/08/25 03:39:19;;;;;;;8.27;6.00;;;;;;;;;;2089982;28;20198;-52
2021/08/25 03:40:19;;;;;;;6.45;5.85;;;;;;;;;;2085386;28;20184;-52
2021/08/25 03:41:19;;;;;;;6.13;5.50;;;;;;;;;;2089608;28;20159;-50
2021/08/25 03:42:20;;;;;;;7.70;6.15;;;;;;;;;;2090303;28;20720;-54
2021/08/25 03:43:20;;;;;;;9.10;5.95;;;;;;;;;;2090177;28;20176;-53
2021/08/25 03:44:20;;;;;;;9.15;6.07;;;;;;;;;;2084818;28;20178;-51
2021/08/25 03:45:20;;;;;;;6.35;5.75;;;;;;;;;;2089565;28;20195;-51
2021/08/25 03:46:20;;;;;;;8.15;5.93;;;;;;;;;;2084512;28;20230;-53
2021/08/25 03:47:21;;;;;;;7.53;6.20;;;;;;;;;;2089279;28;20269;-51
2021/08/25 03:48:21;;;;;;;8.35;6.22;;;;;;;;;;2089261;28;20229;-52
2021/08/25 03:49:21;;;;;;;6.57;5.90;;;;;;;;;;2089950;28;20179;-52
2021/08/25 03:50:21;;;;;;;6.70;5.88;;;;;;;;;;2090238;28;20262;-53
2021/08/25 03:51:22;;;;;;;6.78;5.80;;;;;;;;;;2090076;28;20184;-51
2021/08/25 03:52:22;;;;;;;6.22;5.60;;;;;;;;;;2090762;28;20175;-52
2021/08/25 03:53:22;;;;;;;7.45;6.13;;;;;;;;;;2090347;28;20609;-54
2021/08/25 03:54:22;;;;;;;6.63;5.93;;;;;;;;;;2090184;28;20690;-57
2021/08/25 03:55:23;;;;;;;7.88;6.00;;;;;;;;;;2080309;28;20172;-56
2021/08/25 03:56:23;;;;;;;8.82;6.40;;;;;;;;;;2081117;28;20286;-54
2021/08/25 03:57:23;;;;;;;9.30;6.30;;;;;;;;;;2089173;28;20188;-55
2021/08/25 03:58:23;;;;;;;7.15;5.65;;;;;;;;;;2088550;28;20240;-52
2021/08/25 03:59:24;;;;;;;7.20;5.80;;;;;;;;;;2089681;28;20168;-54
2021/08/25 04:00:24;;;;;;;7.95;6.00;;;;;;;;;;2087963;28;20168;-52
2021/08/25 04:01:24;;;;;;;7.53;5.88;;;;;;;;;;2089273;28;20180;-53
2021/08/25 04:02:24;;;;;;;7.65;6.13;;;;;;;;;;2088083;28;20210;-53
2021/08/25 04:03:24;;;;;;;8.20;6.15;;;;;;;;;;2080583;28;20596;-53
2021/08/25 04:04:25;;;;;;;7.45;5.95;;;;;;;;;;2078324;28;20185;-52
2021/08/25 04:05:25;;;;;;;6.88;5.65;;;;;;;;;;2088764;28;20167;-52
2021/08/25 04:06:25;;;;;;;6.40;5.80;;;;;;;;;;2090310;28;20167;-52
2021/08/25 04:07:25;;;;;;;6.70;5.95;;;;;;;;;;2086914;28;20714;-50
2021/08/25 04:08:26;;;;;;;8.18;6.47;;;;;;;;;;2089163;28;20652;-53
2021/08/25 04:09:26;;;;;;;7.35;6.50;;;;;;;;;;2081727;28;20215;-52
2021/08/25 04:10:26;;;;;;;9.85;7.05;;;;;;;;;;2081621;28;20172;-53
2021/08/25 04:11:26;;;;;;;9.77;7.43;;;;;;;;;;2082589;28;20172;-52
2021/08/25 04:12:27;;;;;;;9.45;7.75;;;;;;;;;;2091191;28;20321;-53
2021/08/25 04:13:27;;;;;;;7.97;7.20;;;;;;;;;;2091408;28;20168;-55
2021/08/25 04:14:27;;;;;;;7.75;7.05;;;;;;;;;;2092051;28;20183;-54
2021/08/25 04:15:27;;;;;;;6.97;6.28;;;;;;;;;;2091316;28;20175;-57
2021/08/25 04:16:28;;;;;;;7.63;6.63;;;;;;;;;;2091346;28;20693;-57
2021/08/25 04:17:28;;;;;;;8.00;7.15;;;;;;;;;;2090843;28;20229;-56
2021/08/25 04:18:30;;;;;;;7.15;6.45;;;;;;;;;;2090228;28;20587;-57
2021/08/25 04:19:30;;;;;;;6.85;6.13;;;;;;;;;;2090278;28;20159;-57
2021/08/25 04:20:30;;;;;;;10.07;6.72;;;;;;;;;;2090165;28;20211;-56
2021/08/25 04:21:30;;;;;;;7.88;6.38;;;;;;;;;;2090950;28;20211;-55
2021/08/25 04:22:31;;;;;;;8.52;6.13;;;;;;;;;;2090951;28;20160;-56
2021/08/25 04:23:31;;;;;;;7.22;6.47;;;;;;;;;;2092530;28;20167;-56
2021/08/25 04:24:32;;;;;;;7.97;6.80;;;;;;;;;;2090601;28;20648;-56
2021/08/25 04:25:32;;;;;;;7.78;6.70;;;;;;;;;;2091395;28;20656;-55
2021/08/25 04:26:32;;;;;;;7.13;6.15;;;;;;;;;;2084585;28;20168;-56
2021/08/25 04:27:32;;;;;;;8.75;6.28;;;;;;;;;;2083572;28;20287;-56
2021/08/25 04:28:33;;;;;;;9.80;6.95;;;;;;;;;;2083509;28;20701;-56
2021/08/25 04:29:33;;;;;;;7.65;6.03;;;;;;;;;;2091439;28;20263;-56
2021/08/25 04:30:33;;;;;;;7.10;6.20;;;;;;;;;;2083391;28;20178;-57
2021/08/25 04:31:34;;;;;;;7.10;6.45;;;;;;;;;;2086436;28;20177;-54
2021/08/25 04:32:34;;;;;;;9.38;7.10;;;;;;;;;;2089594;28;20175;-57
2021/08/25 04:33:35;;;;;;;6.68;5.97;;;;;;;;;;2093001;28;20671;-56
2021/08/25 04:34:35;;;;;;;7.70;6.72;;;;;;;;;;2090919;28;20235;-56
2021/08/25 04:35:35;;;;;;;14.10;8.35;;;;;;;;;;2093539;28;20217;-54
2021/08/25 04:36:36;;;;;;;6.57;5.88;;;;;;;;;;2095684;28;20729;-53
2021/08/25 04:37:36;;;;;;;8.50;6.07;;;;;;;;;;2093301;28;20172;-57
2021/08/25 04:39:38;;;;;;;7.10;6.40;;;;;;;;;;2060011;28;20206;-59
2021/08/25 04:40:39;;;;;;;7.40;6.18;;;;;;;;;;2064912;28;20236;-58
2021/08/25 04:41:39;;;;;;;7.20;6.45;;;;;;;;;;2063692;28;20182;-58
2021/08/25 04:42:39;;;;;;;7.80;6.13;;;;;;;;;;2064328;28;20170;-55
2021/08/25 04:43:39;;;;;;;7.25;5.95;;;;;;;;;;2062848;28;20269;-54
2021/08/25 04:44:40;;;;;;;9.90;6.93;;;;;;;;;;2071666;28;20179;-55
2021/08/25 04:45:40;;;;;;;9.18;7.50;;;;;;;;;;2059458;28;20190;-54
2021/08/25 04:46:40;;;;;;;7.10;6.40;;;;;;;;;;2061966;28;20194;-55
2021/08/25 04:47:40;;;;;;;7.68;6.57;;;;;;;;;;2064504;28;20187;-53
2021/08/25 04:48:41;;;;;;;6.68;6.05;;;;;;;;;;2062540;28;20184;-59
2021/08/25 04:49:41;;;;;;;8.52;6.93;;;;;;;;;;2052835;28;20185;-58
2021/08/25 04:50:41;;;;;;;10.90;6.70;;;;;;;;;;2063279;28;20591;-59
2021/08/25 04:51:41;;;;;;;7.47;6.50;;;;;;;;;;2054439;28;20185;-57
2021/08/25 04:52:42;;;;;;;7.18;6.00;;;;;;;;;;2047089;28;20199;-57
2021/08/25 04:53:42;;;;;;;7.32;6.40;;;;;;;;;;2063191;28;20240;-59
2021/08/25 04:54:43;;;;;;;6.75;5.88;;;;;;;;;;2056358;28;20186;-57
2021/08/25 04:55:44;;;;;;;8.25;6.18;;;;;;;;;;2055324;28;20182;-55
2021/08/25 04:56:44;;;;;;;7.97;6.82;;;;;;;;;;2057026;28;20237;-57
2021/08/25 04:57:44;;;;;;;7.68;6.82;;;;;;;;;;2053661;28;20232;-54
2021/08/25 04:58:44;;;;;;;8.18;6.20;;;;;;;;;;2058498;28;20237;-56
2021/08/25 04:59:45;;;;;;;6.70;5.68;;;;;;;;;;2059398;28;20177;-56
2021/08/25 05:00:46;;;;;;;7.82;6.25;;;;;;;;;;2054628;28;20206;-56
2021/08/25 05:01:47;;;;;;;6.60;6.10;;;;;;;;;;2052188;28;20261;-55
2021/08/25 05:02:47;;;;;;;8.40;7.00;;;;;;;;;;2054751;28;20181;-56
2021/08/25 05:03:47;;;;;;;7.35;6.55;;;;;;;;;;2055936;28;20187;-54
2021/08/25 05:04:47;;;;;;;8.60;7.20;;;;;;;;;;2039501;29;20175;-55
2021/08/25 05:05:48;;;;;;;10.77;7.75;;;;;;;;;;2044920;29;20254;-56
2021/08/25 05:06:48;;;;;;;10.57;8.80;;;;;;;;;;2061917;28;20194;-55
2021/08/25 05:07:48;;;;;;;12.65;8.20;;;;;;;;;;2065387;28;20192;-52
2021/08/25 05:08:48;;;;;;;10.27;7.30;;;;;;;;;;2059361;28;20237;-56
2021/08/25 05:09:49;;;;;;;8.10;6.85;;;;;;;;;;2053180;28;20241;-56
2021/08/25 05:10:49;;;;;;;7.47;6.78;;;;;;;;;;2054735;28;20222;-56
2021/08/25 05:11:49;;;;;;;9.65;7.15;;;;;;;;;;2063297;28;20210;-54
2021/08/25 05:12:50;;;;;;;12.50;7.82;;;;;;;;;;2062159;28;20186;-49
2021/08/25 05:13:50;;;;;;;11.65;7.35;;;;;;;;;;2046665;28;20206;-56
2021/08/25 05:14:50;;;;;;;9.25;6.47;;;;;;;;;;2045631;28;20249;-54
2021/08/25 05:15:50;;;;;;;11.18;7.10;;;;;;;;;;2053171;28;20279;-56
2021/08/25 05:16:50;;;;;;;9.18;6.18;;;;;;;;;;2047828;28;20268;-55
2021/08/25 05:17:51;;;;;;;13.55;8.50;;;;;;;;;;2059004;28;20169;-57
2021/08/25 05:18:51;;;;;;;9.02;6.88;;;;;;;;;;2059051;28;20669;-56
2021/08/25 05:19:51;;;;;;;8.07;6.40;;;;;;;;;;2059621;28;20178;-56
2021/08/25 05:20:51;;;;;;;8.48;5.93;;;;;;;;;;2058545;28;20170;-57
2021/08/25 05:21:52;;;;;;;7.18;6.45;;;;;;;;;;2062646;28;20639;-54
2021/08/25 05:22:52;;;;;;;9.10;7.00;;;;;;;;;;2062072;28;20176;-57
2021/08/25 05:23:53;;;;;;;12.05;6.93;;;;;;;;;;2050809;28;20174;-56
2021/08/25 05:24:53;;;;;;;10.45;6.55;;;;;;;;;;2050002;28;20218;-55
2021/08/25 05:25:53;;;;;;;8.27;6.60;;;;;;;;;;2057553;28;20257;-59
2021/08/25 05:26:55;;;;;;;7.53;6.18;;;;;;;;;;2059016;28;20647;-60
2021/08/25 05:27:55;;;;;;;8.43;6.60;;;;;;;;;;2055972;28;20213;-54
2021/08/25 05:28:56;;;;;;;6.00;5.40;;;;;;;;;;2058970;28;20185;-55
2021/08/25 05:29:56;;;;;;;8.40;6.88;;;;;;;;;;2062056;28;20183;-53
2021/08/25 05:30:56;;;;;;;8.07;6.70;;;;;;;;;;2056384;28;20702;-55
2021/08/25 05:31:57;;;;;;;7.07;6.13;;;;;;;;;;2063005;28;20177;-53
2021/08/25 05:32:57;;;;;;;10.38;6.90;;;;;;;;;;2056472;28;21045;-53
2021/08/25 05:33:58;;;;;;;9.10;6.75;;;;;;;;;;2053014;28;20631;-54
2021/08/25 05:34:58;;;;;;;8.38;7.35;;;;;;;;;;2044723;28;20191;-53
2021/08/25 05:35:59;;;;;;;9.55;7.20;;;;;;;;;;2059516;28;20166;-55
2021/08/25 05:36:59;;;;;;;8.10;6.47;;;;;;;;;;2057672;28;20723;-54
2021/08/25 05:38:00;;;;;;;7.82;6.97;;;;;;;;;;2063234;28;20166;-56
2021/08/25 05:39:00;;;;;;;9.43;7.68;;;;;;;;;;2062888;28;20220;-55
2021/08/25 05:40:00;;;;;;;7.72;7.03;;;;;;;;;;2061446;28;20321;-57
2021/08/25 05:41:00;;;;;;;11.38;8.18;;;;;;;;;;2049975;28;20179;-55
2021/08/25 05:42:00;;;;;;;10.63;7.72;;;;;;;;;;2056754;28;20166;-58
2021/08/25 05:43:01;;;;;;;11.18;8.35;;;;;;;;;;2056664;28;20204;-55
2021/08/25 05:44:04;;;;;;;9.93;7.47;;;;;;;;;;2043975;28;20186;-53
2021/08/25 05:45:04;;;;;;;10.93;7.07;;;;;;;;;;2040463;28;20226;-57
2021/08/25 05:46:04;;;;;;;7.88;7.07;;;;;;;;;;2064010;28;20181;-56
2021/08/25 05:47:05;;;;;;;9.07;7.68;;;;;;;;;;2057571;28;20201;-55
2021/08/25 05:48:05;;;;;;;9.35;7.38;;;;;;;;;;2060366;28;20201;-55
2021/08/25 05:49:05;;;;;;;7.57;6.78;;;;;;;;;;2059718;28;20798;-52
2021/08/25 05:50:06;;;;;;;8.45;7.63;;;;;;;;;;2058878;28;20173;-55
2021/08/25 05:51:06;;;;;;;7.93;7.13;;;;;;;;;;2061915;28;20181;-52
2021/08/25 05:52:07;;;;;;;14.18;8.20;;;;;;;;;;2055613;28;20193;-52
2021/08/25 05:53:08;;;;;;;11.10;7.63;;;;;;;;;;2060791;28;20169;-57
2021/08/25 05:54:09;;;;;;;8.32;7.45;;;;;;;;;;2058492;28;20180;-50
2021/08/25 05:55:10;;;;;;;8.60;7.65;;;;;;;;;;2054325;28;20167;-49
2021/08/25 05:56:11;;;;;;;10.75;8.50;;;;;;;;;;2057249;28;20646;-53
2021/08/25 05:57:11;;;;;;;9.07;8.15;;;;;;;;;;2060669;28;20239;-55
2021/08/25 05:58:11;;;;;;;9.20;8.23;;;;;;;;;;2061494;28;20182;-58
2021/08/25 05:59:12;;;;;;;9.88;8.32;;;;;;;;;;2062625;28;20185;-53
2021/08/25 06:00:16;;;;;;;9.82;8.82;;;;;;;;;;2056487;28;20166;-55
2021/08/25 06:01:16;;;;;;;13.13;8.95;;;;;;;;;;2056370;28;20166;-56
2021/08/25 06:02:16;;;;;;;10.60;8.57;;;;;;;;;;2050648;28;20548;-55
2021/08/25 06:03:17;;;;;;;9.02;8.20;;;;;;;;;;2054413;28;20589;-55
2021/08/25 06:04:17;;;;;;;10.45;8.57;;;;;;;;;;2055394;28;20262;-55